Taunton 2W

41° 53' 56"N, 71° 08' 19"W, Elevation 50 ft.
Eastern Time

Hourly observations for the last 72 hours

Date Time Temperature (°F) Humi-
dity

(%)
Wind
(mph)
Pressure Rain (in) Sun
(W/m2)
UV ET
(in)
Air Dew 6 Hour 1 Hr 3 Hr 6 Hr Day
Alt
(in)
Sea
Level

(mb)
Max Min
20 15:00 47.3 28.1 47 SW 8 G 17 29.74 1007.1 0.00 153 0.0 0.062
20 14:00 48.2 28.4 46 WSW 10 G 23 29.71 1006.1 0.00 260 0.9 0.053
20 13:00 48.5 27.6 51.3 35.4 44 W 14 G 25 29.69 1005.5 0.00 332 1.3 0.043
20 12:00 51.2 28.3 41 WSW 7 G 20 29.71 1006.0 0.00 534 1.9 0.030
20 11:00 47.3 26.5 44 WSW 13 G 20 29.72 1006.4 0.00 482 1.7 0.020
20 10:00 44.3 26.8 50 WSW 8 G 19 29.73 1006.7 0.00 439 1.2 0.012
20 09:00 40.2 27.0 59 WSW 11 G 18 29.73 1006.7 0.00 332 0.6 0.008
20 08:00 36.6 26.3 66 SW 6 G 14 29.73 1006.7 0.00 91 0.0 0.006
20 07:00 35.5 26.0 35.5 26.0 68 SW 7 G 14 29.72 1006.6 0.00 0 0.0 0.005
20 06:00 33.2 25.2 72 S 3 G 8 29.74 1007.1 0.00 0 0.0 0.004
20 05:00 32.7 24.7 72 SSW 4 G 10 29.77 1008.3 0.00 0 0.0 0.003
20 04:00 33.4 24.7 70 SSW 2 G 9 29.81 1009.6 0.00 0 0.0 0.002
20 03:00 33.3 24.9 71 SSW 5 G 10 29.81 1009.5 0.00 0 0.0 0.001
20 02:00 31.0 23.4 73 SSW 4 G 9 29.83 1010.3 0.00 0 0.0 0.000
20 01:00 26.1 20.5 29.2 24.6 79 SW 3 G 5 29.86 1011.3 0.00 0 0.0 0.000
20 00:00 25.9 20.0 78 WSW 1 G 3 29.89 1012.1 0.00 0 0.0 0.042
19 23:00 28.2 20.3 72 SSW 4 G 8 29.93 1013.4 0.00 0 0.0 0.041
19 22:00 28.9 20.3 70 SSW 2 G 8 29.94 1013.9 0.00 0 0.0 0.040
19 21:00 29.0 20.8 71 SSW 4 G 5 29.94 1014.1 0.00 0 0.0 0.039
19 20:00 26.1 21.1 81 W 2 G 3 29.94 1014.1 0.00 0 0.0 0.039
19 19:00 27.4 22.0 35.9 27.4 80 Calm 29.93 1013.5 0.00 0 0.0 0.039
19 18:00 29.8 21.9 72 Calm 29.93 1013.6 0.00 0 0.0 0.038
19 17:00 31.8 19.9 61 W 2 G 4 29.94 1013.8 0.00 0 0.0 0.037
19 16:00 34.8 21.1 57 W 6 G 11 29.92 1013.2 0.00 51 0.0 0.034
19 15:00 35.4 22.5 59 W 4 G 9 29.92 1013.1 0.00 190 0.0 0.031
19 14:00 35.3 22.4 59 WSW 5 G 12 29.90 1012.6 0.00 323 0.8 0.025
19 13:00 34.8 21.5 35.8 17.5 58 W 3 G 13 29.91 1012.9 0.00 445 1.3 0.018
19 12:00 33.7 22.4 63 NW 6 G 10 29.93 1013.6 0.00 501 1.5 0.011
19 11:00 30.9 20.9 66 NW 7 G 12 29.97 1014.8 0.00 283 1.2 0.006
19 10:00 29.2 19.3 66 W 6 G 11 29.99 1015.5 0.00 387 0.9 0.002
19 09:00 24.7 18.5 77 W 6 G 11 29.99 1015.5 0.00 192 0.0 0.000
19 08:00 19.6 16.1 86 WNW 1 G 3 29.98 1015.2 0.00 123 0.0 0.000
19 07:00 18.6 14.8 20.8 17.7 85 WNW 2 G 4 29.97 1014.8 0.00 0 0.0 0.000
19 06:00 19.8 14.9 81 WNW 1 G 6 29.95 1014.4 0.00 0 0.0 0.000
19 05:00 19.7 14.8 81 W 6 G 11 29.95 1014.2 0.00 0 0.0 0.000
19 04:00 18.2 14.2 84 WNW 3 G 5 29.93 1013.7 0.00 0 0.0 0.000
19 03:00 19.9 14.7 80 WNW 3 G 8 29.94 1013.8 0.00 0 0.0 0.000
19 02:00 20.3 15.1 80 WNW 4 G 8 29.94 1014.0 0.00 0 0.0 0.000
19 01:00 20.8 15.3 26.0 20.8 79 WNW 2 G 5 29.92 1013.4 0.00 0 0.0 0.000
19 00:00 22.4 16.3 77 WNW 6 G 11 29.94 1014.0 0.00 0 0.0 0.048
18 23:00 23.0 16.9 77 WNW 4 G 9 29.94 1013.9 0.00 0 0.0 0.047
18 22:00 23.8 17.3 76 W 5 G 8 29.94 1014.0 0.00 0 0.0 0.046
18 21:00 24.0 17.8 77 WNW 5 G 9 29.93 1013.5 0.00 0 0.0 0.045
18 20:00 23.9 18.0 78 WNW 3 G 6 29.92 1013.3 0.00 0 0.0 0.044
18 19:00 25.7 18.6 34.4 25.2 74 NW 8 G 11 29.90 1012.7 0.00 0 0.0 0.043
18 18:00 26.5 18.7 72 NW 4 G 7 29.89 1012.2 0.00 0 0.0 0.042
18 17:00 28.5 18.6 66 NW 4 G 10 29.87 1011.5 0.00 0 0.0 0.041
18 16:00 31.0 18.7 60 NNW 8 G 12 29.84 1010.4 0.00 62 0.0 0.038
18 15:00 33.0 18.2 54 NNW 10 G 15 29.82 1009.9 0.00 225 0.0 0.032
18 14:00 33.4 19.0 55 NNW 10 G 16 29.83 1010.3 0.00 359 0.8 0.025
18 13:00 32.6 19.1 33.2 19.9 57 NW 9 G 15 29.84 1010.5 0.00 450 1.2 0.017
18 12:00 31.9 19.6 60 NW 11 G 16 29.88 1011.9 0.00 487 1.4 0.010
18 11:00 29.3 20.1 68 NW 6 G 9 29.93 1013.5 0.00 462 1.2 0.005
18 10:00 24.6 17.5 74 NNW 2 G 3 29.96 1014.5 0.00 396 0.8 0.001
18 09:00 22.3 17.1 80 NW 7 G 12 29.96 1014.6 0.00 218 0.0 0.000
18 08:00 20.5 17.2 87 NW 4 G 7 29.94 1014.1 0.00 123 0.0 0.000
18 07:00 20.3 18.1 30.9 20.2 91 NW 3 G 6 29.94 1014.1 0.00 0 0.0 0.000
18 06:00 21.5 19.3 91 NW 2 G 4 29.96 1014.6 0.00 0 0.0 0.000
18 05:00 23.9 21.7 91 NW 3 G 6 29.97 1014.8 0.00 0 0.0 0.000
18 04:00 25.9 23.6 91 NW 3 G 8 29.97 1014.9 0.00 0 0.0 0.000
18 03:00 27.3 25.0 91 NNW 5 G 8 29.97 1015.0 0.00 0 0.0 0.000
18 02:00 29.3 26.5 89 NW 8 G 15 30.00 1015.8 0.00 0 0.0 0.000
18 01:00 30.9 29.6 32.6 30.9 95 NW 6 G 9 29.99 1015.6 0.00 0 0.0 0.000
18 00:00 31.8 30.5 95 NNW 1 G 5 30.03 1017.0 0.19 0 0.0 0.006
17 23:00 32.0 31.0 96 NW 3 G 8 30.05 1017.7 0.19 0 0.0 0.006
17 22:00 32.1 31.3 97 NNW 3 G 7 30.04 1017.4 0.19 0 0.0 0.006
17 21:00 32.3 31.5 97 N 0 G 4 30.06 1018.0 0.19 0 0.0 0.006
17 20:00 32.2 31.2 96 Calm 30.06 1017.9 0.19 0 0.0 0.006
17 19:00 32.6 31.6 34.7 32.5 96 N 1 G 2 30.08 1018.5 0.02 0.03 0.19 0 0.0 0.006
17 18:00 32.7 31.7 96 N 1 G 2 30.08 1018.5 0.02 0.19 0 0.0 0.006
17 17:00 33.7 32.7 96 NNW 5 G 9 30.08 1018.8 0.17 0 0.0 0.006
17 16:00 34.2 32.9 95 N 3 G 6 30.09 1019.1 0.01 0.17 11 0.0 0.006

Data generated by WxSolution Version 1.9.1.1, Build 2017.11.27.